sensor_id;sensor_type;location;lat;lon;timestamp;temperature;humidity
18268;DHT22;9260;49.998;19.880;2023-12-28T00:03:23;-3.50;1.00
18268;DHT22;9260;49.998;19.880;2023-12-28T00:13:26;-3.70;1.00
18268;DHT22;9260;49.998;19.880;2023-12-28T00:23:31;-3.70;1.00
18268;DHT22;9260;49.998;19.880;2023-12-28T00:33:34;-3.70;1.00
18268;DHT22;9260;49.998;19.880;2023-12-28T00:43:39;-3.50;1.00
18268;DHT22;9260;49.998;19.880;2023-12-28T00:53:43;-3.70;1.00
18268;DHT22;9260;49.998;19.880;2023-12-28T01:03:47;-4.00;1.00
18268;DHT22;9260;49.998;19.880;2023-12-28T01:13:51;-4.20;1.00
18268;DHT22;9260;49.998;19.880;2023-12-28T01:23:56;-3.80;1.00
18268;DHT22;9260;49.998;19.880;2023-12-28T01:33:59;-4.10;1.00
18268;DHT22;9260;49.998;19.880;2023-12-28T01:44:04;-4.00;1.00
18268;DHT22;9260;49.998;19.880;2023-12-28T01:54:07;-4.20;1.00
18268;DHT22;9260;49.998;19.880;2023-12-28T02:04:12;-4.30;1.00
18268;DHT22;9260;49.998;19.880;2023-12-28T02:14:16;-4.30;1.00
18268;DHT22;9260;49.998;19.880;2023-12-28T02:24:21;-4.20;1.00
18268;DHT22;9260;49.998;19.880;2023-12-28T02:34:27;-4.10;1.00
18268;DHT22;9260;49.998;19.880;2023-12-28T02:44:32;-4.30;1.00
18268;DHT22;9260;49.998;19.880;2023-12-28T02:54:37;-4.20;1.00
18268;DHT22;9260;49.998;19.880;2023-12-28T03:04:41;-4.00;1.00
18268;DHT22;9260;49.998;19.880;2023-12-28T03:14:45;-5.10;1.00
18268;DHT22;9260;49.998;19.880;2023-12-28T03:24:49;-4.30;1.00
18268;DHT22;9260;49.998;19.880;2023-12-28T03:34:54;-4.70;1.00
18268;DHT22;9260;49.998;19.880;2023-12-28T03:44:57;-4.40;1.00
18268;DHT22;9260;49.998;19.880;2023-12-28T03:55:01;-4.60;1.00
18268;DHT22;9260;49.998;19.880;2023-12-28T04:05:05;-4.60;1.00
18268;DHT22;9260;49.998;19.880;2023-12-28T04:15:11;-4.50;1.00
18268;DHT22;9260;49.998;19.880;2023-12-28T04:25:14;-4.30;1.00
18268;DHT22;9260;49.998;19.880;2023-12-28T04:35:20;-4.70;1.00
18268;DHT22;9260;49.998;19.880;2023-12-28T04:45:23;-4.70;1.00
18268;DHT22;9260;49.998;19.880;2023-12-28T04:55:28;-4.70;1.00
18268;DHT22;9260;49.998;19.880;2023-12-28T05:05:31;-4.60;1.00
18268;DHT22;9260;49.998;19.880;2023-12-28T05:15:36;-4.70;1.00
18268;DHT22;9260;49.998;19.880;2023-12-28T05:25:40;-4.70;1.00
18268;DHT22;9260;49.998;19.880;2023-12-28T05:35:45;-5.00;1.00
18268;DHT22;9260;49.998;19.880;2023-12-28T05:45:48;-4.70;1.00
18268;DHT22;9260;49.998;19.880;2023-12-28T05:55:52;-5.30;1.00
18268;DHT22;9260;49.998;19.880;2023-12-28T06:05:56;-5.50;1.00
18268;DHT22;9260;49.998;19.880;2023-12-28T06:16:00;-5.60;1.00
18268;DHT22;9260;49.998;19.880;2023-12-28T06:26:04;-5.50;1.00
18268;DHT22;9260;49.998;19.880;2023-12-28T06:36:10;-5.50;1.00
18268;DHT22;9260;49.998;19.880;2023-12-28T06:46:14;-5.30;1.00
18268;DHT22;9260;49.998;19.880;2023-12-28T06:56:19;-5.20;1.00
18268;DHT22;9260;49.998;19.880;2023-12-28T07:06:22;-4.70;1.00
18268;DHT22;9260;49.998;19.880;2023-12-28T07:16:26;-4.20;1.00
18268;DHT22;9260;49.998;19.880;2023-12-28T07:26:30;-4.00;1.00
18268;DHT22;9260;49.998;19.880;2023-12-28T07:36:35;-2.10;1.00
18268;DHT22;9260;49.998;19.880;2023-12-28T07:46:39;1.10;99.90
18268;DHT22;9260;49.998;19.880;2023-12-28T07:56:44;1.20;99.90
18268;DHT22;9260;49.998;19.880;2023-12-28T08:06:48;4.20;1.00
18268;DHT22;9260;49.998;19.880;2023-12-28T08:16:53;11.30;1.00
18268;DHT22;9260;49.998;19.880;2023-12-28T08:26:56;15.50;1.00
18268;DHT22;9260;49.998;19.880;2023-12-28T08:37:03;16.00;1.00
18268;DHT22;9260;49.998;19.880;2023-12-28T08:47:06;19.20;1.00
18268;DHT22;9260;49.998;19.880;2023-12-28T08:57:11;19.60;1.00
18268;DHT22;9260;49.998;19.880;2023-12-28T09:07:14;21.50;1.00
18268;DHT22;9260;49.998;19.880;2023-12-28T09:17:22;27.20;1.00
18268;DHT22;9260;49.998;19.880;2023-12-28T09:27:26;27.40;1.00
18268;DHT22;9260;49.998;19.880;2023-12-28T09:37:31;29.10;1.00
18268;DHT22;9260;49.998;19.880;2023-12-28T09:47:34;31.00;1.00
18268;DHT22;9260;49.998;19.880;2023-12-28T09:57:39;32.10;1.00
18268;DHT22;9260;49.998;19.880;2023-12-28T10:07:43;32.50;1.00
18268;DHT22;9260;49.998;19.880;2023-12-28T10:17:53;32.80;1.00
18268;DHT22;9260;49.998;19.880;2023-12-28T10:27:56;33.00;1.00
18268;DHT22;9260;49.998;19.880;2023-12-28T10:38:01;32.20;1.00
18268;DHT22;9260;49.998;19.880;2023-12-28T10:48:06;33.90;1.00
18268;DHT22;9260;49.998;19.880;2023-12-28T10:58:12;33.90;1.00
18268;DHT22;9260;49.998;19.880;2023-12-28T11:08:18;34.10;1.00
18268;DHT22;9260;49.998;19.880;2023-12-28T11:18:24;33.90;1.00
18268;DHT22;9260;49.998;19.880;2023-12-28T11:28:30;34.70;1.00
18268;DHT22;9260;49.998;19.880;2023-12-28T11:38:34;33.80;1.00
18268;DHT22;9260;49.998;19.880;2023-12-28T11:48:38;33.30;1.00
18268;DHT22;9260;49.998;19.880;2023-12-28T11:58:43;33.30;1.00
18268;DHT22;9260;49.998;19.880;2023-12-28T12:08:49;31.80;1.00
18268;DHT22;9260;49.998;19.880;2023-12-28T12:18:54;27.70;1.00
18268;DHT22;9260;49.998;19.880;2023-12-28T12:28:58;31.30;1.00
18268;DHT22;9260;49.998;19.880;2023-12-28T12:39:03;31.20;1.00
18268;DHT22;9260;49.998;19.880;2023-12-28T12:49:07;27.40;1.00
18268;DHT22;9260;49.998;19.880;2023-12-28T12:59:12;27.90;1.00
18268;DHT22;9260;49.998;19.880;2023-12-28T13:09:18;25.90;1.00
18268;DHT22;9260;49.998;19.880;2023-12-28T13:19:23;24.80;1.00
18268;DHT22;9260;49.998;19.880;2023-12-28T13:29:27;23.10;1.00
18268;DHT22;9260;49.998;19.880;2023-12-28T13:39:33;24.00;1.00
18268;DHT22;9260;49.998;19.880;2023-12-28T13:49:40;24.90;1.00
18268;DHT22;9260;49.998;19.880;2023-12-28T13:59:46;23.20;1.00
18268;DHT22;9260;49.998;19.880;2023-12-28T14:09:50;20.40;1.00
18268;DHT22;9260;49.998;19.880;2023-12-28T14:19:55;14.20;1.00
18268;DHT22;9260;49.998;19.880;2023-12-28T14:29:58;11.10;1.00
18268;DHT22;9260;49.998;19.880;2023-12-28T14:40:07;8.80;1.00
18268;DHT22;9260;49.998;19.880;2023-12-28T14:50:13;6.50;1.00
18268;DHT22;9260;49.998;19.880;2023-12-28T15:00:18;6.20;1.00
18268;DHT22;9260;49.998;19.880;2023-12-28T15:10:22;5.30;1.00
18268;DHT22;9260;49.998;19.880;2023-12-28T15:20:28;4.80;1.00
18268;DHT22;9260;49.998;19.880;2023-12-28T15:30:32;4.40;1.00
18268;DHT22;9260;49.998;19.880;2023-12-28T15:40:37;4.30;1.00
18268;DHT22;9260;49.998;19.880;2023-12-28T15:50:41;4.30;1.00
18268;DHT22;9260;49.998;19.880;2023-12-28T16:00:46;4.00;1.00
18268;DHT22;9260;49.998;19.880;2023-12-28T16:10:49;4.20;1.00
18268;DHT22;9260;49.998;19.880;2023-12-28T16:20:54;4.70;1.00
18268;DHT22;9260;49.998;19.880;2023-12-28T16:30:58;4.80;1.00
18268;DHT22;9260;49.998;19.880;2023-12-28T16:41:03;5.10;1.00
18268;DHT22;9260;49.998;19.880;2023-12-28T16:51:08;5.10;1.00
18268;DHT22;9260;49.998;19.880;2023-12-28T17:01:15;5.30;1.00
18268;DHT22;9260;49.998;19.880;2023-12-28T17:11:18;5.10;1.00
18268;DHT22;9260;49.998;19.880;2023-12-28T17:21:24;4.80;1.00
18268;DHT22;9260;49.998;19.880;2023-12-28T17:31:28;4.50;1.00
18268;DHT22;9260;49.998;19.880;2023-12-28T17:41:37;3.80;1.00
18268;DHT22;9260;49.998;19.880;2023-12-28T17:51:41;3.50;1.00
18268;DHT22;9260;49.998;19.880;2023-12-28T18:01:46;3.40;1.00
18268;DHT22;9260;49.998;19.880;2023-12-28T18:11:49;3.40;1.00
18268;DHT22;9260;49.998;19.880;2023-12-28T18:21:54;3.00;1.00
18268;DHT22;9260;49.998;19.880;2023-12-28T18:32:00;2.90;1.00
18268;DHT22;9260;49.998;19.880;2023-12-28T18:42:04;2.40;1.00
18268;DHT22;9260;49.998;19.880;2023-12-28T18:52:08;2.00;1.00
18268;DHT22;9260;49.998;19.880;2023-12-28T19:02:15;1.80;99.90
18268;DHT22;9260;49.998;19.880;2023-12-28T19:12:18;0.20;1.00
18268;DHT22;9260;49.998;19.880;2023-12-28T19:22:23;1.10;1.00
18268;DHT22;9260;49.998;19.880;2023-12-28T19:32:27;0.90;1.00
18268;DHT22;9260;49.998;19.880;2023-12-28T19:42:33;0.80;1.00
18268;DHT22;9260;49.998;19.880;2023-12-28T19:52:36;0.90;1.00
18268;DHT22;9260;49.998;19.880;2023-12-28T20:02:42;1.20;1.00
18268;DHT22;9260;49.998;19.880;2023-12-28T20:12:45;0.70;1.00
18268;DHT22;9260;49.998;19.880;2023-12-28T20:22:50;0.30;1.00
18268;DHT22;9260;49.998;19.880;2023-12-28T20:32:53;0.20;1.00
18268;DHT22;9260;49.998;19.880;2023-12-28T20:42:58;0.30;1.00
18268;DHT22;9260;49.998;19.880;2023-12-28T20:53:01;0.60;1.00
18268;DHT22;9260;49.998;19.880;2023-12-28T21:03:06;1.10;1.00
18268;DHT22;9260;49.998;19.880;2023-12-28T21:13:09;1.60;1.00
18268;DHT22;9260;49.998;19.880;2023-12-28T21:23:21;1.70;1.00
18268;DHT22;9260;49.998;19.880;2023-12-28T21:33:24;1.80;1.00
18268;DHT22;9260;49.998;19.880;2023-12-28T21:43:29;1.60;1.00
18268;DHT22;9260;49.998;19.880;2023-12-28T21:53:33;1.20;1.00
18268;DHT22;9260;49.998;19.880;2023-12-28T22:03:37;0.70;1.00
18268;DHT22;9260;49.998;19.880;2023-12-28T22:13:41;0.60;1.00
18268;DHT22;9260;49.998;19.880;2023-12-28T22:23:45;0.50;1.00
18268;DHT22;9260;49.998;19.880;2023-12-28T22:33:50;0.70;1.00
18268;DHT22;9260;49.998;19.880;2023-12-28T22:43:55;0.80;1.00
18268;DHT22;9260;49.998;19.880;2023-12-28T22:53:58;0.90;1.00
18268;DHT22;9260;49.998;19.880;2023-12-28T23:04:03;1.00;1.00
18268;DHT22;9260;49.998;19.880;2023-12-28T23:14:07;1.40;1.00
18268;DHT22;9260;49.998;19.880;2023-12-28T23:24:11;1.40;1.00
18268;DHT22;9260;49.998;19.880;2023-12-28T23:34:14;1.70;1.00
18268;DHT22;9260;49.998;19.880;2023-12-28T23:44:31;1.90;1.00
18268;DHT22;9260;49.998;19.880;2023-12-28T23:54:35;2.20;1.00
